Time;durP1;ratioP1;P1;durP2;ratioP2;P2;SDS_P1;SDS_P2;PMS_P1;PMS_P2;Temp;Humidity;BMP_temperature;BMP_pressure;BME280_temperature;BME280_humidity;BME280_pressure;Samples;Min_cycle;Max_cycle;Signal;HPM_P1;HPM_P2
2023/10/21 00:00:31;;;;;;;;;;;13.80;99.90;;;;;;5077881;28;19909;-73
2023/10/21 00:02:56;;;;;;;;;;;13.80;99.90;;;;;;5095252;28;19908;-73
2023/10/21 00:05:22;;;;;;;;;;;13.80;99.90;;;;;;5092474;28;20346;-73
2023/10/21 00:07:47;;;;;;;;;;;13.80;99.90;;;;;;5095544;28;19920;-73
2023/10/21 00:10:13;;;;;;;;;;;13.80;99.90;;;;;;5091474;28;19923;-73
2023/10/21 00:12:38;;;;;;;;;;;13.70;99.90;;;;;;5095447;28;19930;-74
2023/10/21 00:15:04;;;;;;;;;;;13.70;99.90;;;;;;5090842;28;20021;-73
2023/10/21 00:17:30;;;;;;;;;;;13.70;99.90;;;;;;5095400;28;19915;-74
2023/10/21 00:19:56;;;;;;;;;;;13.70;99.90;;;;;;5090312;28;19913;-73
2023/10/21 00:22:21;;;;;;;;;;;13.70;99.90;;;;;;5090230;28;19908;-75
2023/10/21 00:24:47;;;;;;;;;;;13.70;99.90;;;;;;5091973;28;19920;-74
2023/10/21 00:27:12;;;;;;;;;;;13.70;99.90;;;;;;5094285;28;19962;-74
2023/10/21 00:29:38;;;;;;;;;;;13.70;99.90;;;;;;5092064;28;19912;-73
2023/10/21 00:32:04;;;;;;;;;;;13.70;99.90;;;;;;5092971;28;20388;-74
2023/10/21 00:34:30;;;;;;;;;;;13.70;99.90;;;;;;5092446;28;19930;-73
2023/10/21 00:36:56;;;;;;;;;;;13.70;99.90;;;;;;5093136;28;19912;-73
2023/10/21 00:39:22;;;;;;;;;;;13.70;99.90;;;;;;5091372;28;19927;-73
2023/10/21 00:41:47;;;;;;;;;;;13.70;99.90;;;;;;5092766;28;19914;-73
2023/10/21 00:44:13;;;;;;;;;;;13.70;99.90;;;;;;5091860;28;19962;-74
2023/10/21 00:46:39;;;;;;;;;;;13.70;99.90;;;;;;5093417;28;19919;-74
2023/10/21 00:49:05;;;;;;;;;;;13.60;99.90;;;;;;5089837;28;19916;-73
2023/10/21 00:51:31;;;;;;;;;;;13.50;99.90;;;;;;5092912;28;20292;-73
2023/10/21 00:53:58;;;;;;;;;;;13.50;99.90;;;;;;5090661;28;19908;-73
2023/10/21 00:56:23;;;;;;;;;;;13.40;99.90;;;;;;5093003;28;19908;-73
2023/10/21 00:58:49;;;;;;;;;;;13.30;99.90;;;;;;5089791;28;20458;-74
2023/10/21 01:01:15;;;;;;;;;;;13.30;99.90;;;;;;5092611;28;19912;-73
2023/10/21 01:03:40;;;;;;;;;;;13.20;99.90;;;;;;5090732;28;20508;-74
2023/10/21 01:06:06;;;;;;;;;;;13.20;99.90;;;;;;5092745;28;19997;-74
2023/10/21 01:08:45;;;;;;;;;;;13.20;99.90;;;;;;5089409;28;19908;-75
2023/10/21 01:11:11;;;;;;;;;;;13.30;99.90;;;;;;5071945;28;19943;-75
2023/10/21 01:13:36;;;;;;;;;;;13.40;99.90;;;;;;5089191;28;19966;-74
2023/10/21 01:16:02;;;;;;;;;;;13.50;99.90;;;;;;5093599;28;20364;-75
2023/10/21 01:18:33;;;;;;;;;;;13.50;99.90;;;;;;5088870;28;19915;-72
2023/10/21 01:20:59;;;;;;;;;;;13.60;99.90;;;;;;5093654;28;19908;-75
2023/10/21 01:23:25;;;;;;;;;;;13.60;99.90;;;;;;5089751;28;19913;-76
2023/10/21 01:25:50;;;;;;;;;;;13.60;99.90;;;;;;5091441;28;20402;-74
2023/10/21 01:28:17;;;;;;;;;;;13.50;99.90;;;;;;5092737;28;19920;-73
2023/10/21 01:30:42;;;;;;;;;;;13.60;99.90;;;;;;5090190;28;19912;-75
2023/10/21 01:33:08;;;;;;;;;;;13.60;99.90;;;;;;5089552;28;19919;-75
2023/10/21 01:35:33;;;;;;;;;;;13.60;99.90;;;;;;5096023;28;19908;-75
2023/10/21 01:37:59;;;;;;;;;;;13.60;99.90;;;;;;5091034;28;19924;-72
2023/10/21 01:40:24;;;;;;;;;;;13.60;99.90;;;;;;5084865;28;19958;-75
2023/10/21 01:42:50;;;;;;;;;;;13.60;99.90;;;;;;5090143;28;19924;-74
2023/10/21 01:45:15;;;;;;;;;;;13.60;99.90;;;;;;5092539;28;19923;-74
2023/10/21 01:47:41;;;;;;;;;;;13.60;99.90;;;;;;5088634;28;19965;-75
2023/10/21 01:50:09;;;;;;;;;;;13.60;99.90;;;;;;5084553;28;19922;-75
2023/10/21 01:52:35;;;;;;;;;;;13.50;99.90;;;;;;5080098;28;20319;-74
2023/10/21 01:55:04;;;;;;;;;;;13.50;99.90;;;;;;5079227;28;20012;-75
2023/10/21 01:57:31;;;;;;;;;;;13.50;99.90;;;;;;5079135;28;19909;-75
2023/10/21 01:59:57;;;;;;;;;;;13.50;99.90;;;;;;5077629;28;20397;-76
2023/10/21 02:02:22;;;;;;;;;;;13.50;99.90;;;;;;5079841;28;19908;-74
2023/10/21 02:04:48;;;;;;;;;;;13.50;99.90;;;;;;5078849;28;19909;-76
2023/10/21 02:07:14;;;;;;;;;;;13.50;99.90;;;;;;5080264;28;19948;-75
2023/10/21 02:09:40;;;;;;;;;;;13.50;99.90;;;;;;5078869;28;19944;-75
2023/10/21 02:12:05;;;;;;;;;;;13.40;99.90;;;;;;5078880;28;19953;-74
2023/10/21 02:14:31;;;;;;;;;;;13.40;99.90;;;;;;5078490;28;19920;-74
2023/10/21 02:16:57;;;;;;;;;;;13.40;99.90;;;;;;5080419;28;20003;-75
2023/10/21 02:19:23;;;;;;;;;;;13.40;99.90;;;;;;5078382;28;20013;-75
2023/10/21 02:21:50;;;;;;;;;;;13.30;99.90;;;;;;5080221;28;19908;-74
2023/10/21 02:24:16;;;;;;;;;;;13.30;99.90;;;;;;5079133;28;20402;-75
2023/10/21 02:26:41;;;;;;;;;;;13.30;99.90;;;;;;5079679;28;20463;-75
2023/10/21 02:29:07;;;;;;;;;;;13.30;99.90;;;;;;5066142;28;20300;-74
2023/10/21 02:31:33;;;;;;;;;;;13.30;99.90;;;;;;5079805;28;19912;-75
2023/10/21 02:33:59;;;;;;;;;;;13.30;99.90;;;;;;5077686;28;20003;-76
2023/10/21 02:36:24;;;;;;;;;;;13.30;99.90;;;;;;5086936;28;19951;-75
2023/10/21 02:38:53;;;;;;;;;;;13.30;99.90;;;;;;5083712;28;19908;-75
2023/10/21 02:41:19;;;;;;;;;;;13.20;99.90;;;;;;5088538;28;19909;-75
2023/10/21 02:43:44;;;;;;;;;;;13.20;99.90;;;;;;5083246;28;19909;-75
2023/10/21 02:46:10;;;;;;;;;;;13.10;99.90;;;;;;5078423;28;20387;-76
2023/10/21 02:48:36;;;;;;;;;;;13.10;99.90;;;;;;5076868;28;20283;-75
2023/10/21 02:51:14;;;;;;;;;;;13.00;99.90;;;;;;5080596;28;19955;-75
2023/10/21 02:53:40;;;;;;;;;;;13.00;99.90;;;;;;5092241;28;19916;-75
2023/10/21 02:56:06;;;;;;;;;;;13.10;99.90;;;;;;5092068;28;19915;-75
2023/10/21 02:58:32;;;;;;;;;;;13.10;99.90;;;;;;5092797;28;19908;-75
2023/10/21 03:00:59;;;;;;;;;;;13.10;99.90;;;;;;5092430;28;19913;-75
2023/10/21 03:03:26;;;;;;;;;;;13.10;99.90;;;;;;5093661;28;19908;-75
2023/10/21 03:05:51;;;;;;;;;;;13.10;99.90;;;;;;5093051;28;19958;-75
2023/10/21 03:08:17;;;;;;;;;;;13.10;99.90;;;;;;5098252;28;19908;-75
2023/10/21 03:10:42;;;;;;;;;;;13.10;99.90;;;;;;5083679;28;19913;-73
2023/10/21 03:13:08;;;;;;;;;;;13.00;99.90;;;;;;5087742;28;19916;-75
2023/10/21 03:15:33;;;;;;;;;;;13.00;99.90;;;;;;5083175;28;19938;-75
2023/10/21 03:17:59;;;;;;;;;;;13.00;99.90;;;;;;5087684;28;19931;-75
2023/10/21 03:20:25;;;;;;;;;;;13.00;99.90;;;;;;5083960;28;20010;-75
2023/10/21 03:22:50;;;;;;;;;;;13.00;99.90;;;;;;5086720;28;19908;-75
2023/10/21 03:25:17;;;;;;;;;;;13.00;99.90;;;;;;5085591;28;20004;-75
2023/10/21 03:27:43;;;;;;;;;;;12.90;99.90;;;;;;5087242;28;19926;-74
2023/10/21 03:30:08;;;;;;;;;;;13.00;99.90;;;;;;5091149;28;19996;-75
2023/10/21 03:32:34;;;;;;;;;;;13.00;99.90;;;;;;5086301;28;19923;-73
2023/10/21 03:34:59;;;;;;;;;;;13.00;99.90;;;;;;5080563;28;20429;-76
2023/10/21 03:37:25;;;;;;;;;;;13.00;99.90;;;;;;5080074;28;19923;-75
2023/10/21 03:39:50;;;;;;;;;;;13.00;99.90;;;;;;5079858;28;19923;-75
2023/10/21 03:42:16;;;;;;;;;;;13.00;99.90;;;;;;5090498;28;20380;-75
2023/10/21 03:44:41;;;;;;;;;;;12.90;99.90;;;;;;5093511;28;19965;-76
2023/10/21 03:47:07;;;;;;;;;;;12.90;99.90;;;;;;5094686;28;19908;-74
2023/10/21 03:49:33;;;;;;;;;;;12.90;99.90;;;;;;5093606;28;19908;-75
2023/10/21 03:51:58;;;;;;;;;;;12.80;99.90;;;;;;5095952;28;19988;-75
2023/10/21 03:54:24;;;;;;;;;;;12.80;99.90;;;;;;5092006;28;20467;-75
2023/10/21 03:56:51;;;;;;;;;;;12.80;99.90;;;;;;5096168;28;19912;-74
2023/10/21 03:59:16;;;;;;;;;;;12.80;99.90;;;;;;5089461;28;19916;-75
2023/10/21 04:01:42;;;;;;;;;;;12.70;99.90;;;;;;5084291;28;19914;-75
2023/10/21 04:04:08;;;;;;;;;;;12.70;99.90;;;;;;5070600;28;19913;-75
2023/10/21 04:06:34;;;;;;;;;;;12.70;99.90;;;;;;5058929;28;19909;-75
2023/10/21 04:09:00;;;;;;;;;;;12.60;99.90;;;;;;5075189;28;20388;-76
2023/10/21 04:11:26;;;;;;;;;;;12.60;99.90;;;;;;5070179;28;19913;-75
2023/10/21 04:13:51;;;;;;;;;;;12.50;99.90;;;;;;5061313;28;19913;-75
2023/10/21 04:16:17;;;;;;;;;;;12.50;99.90;;;;;;5075003;28;19913;-75
2023/10/21 04:18:42;;;;;;;;;;;12.40;99.90;;;;;;5062898;28;19909;-75
2023/10/21 04:21:08;;;;;;;;;;;12.30;99.90;;;;;;5062210;28;20297;-75
2023/10/21 04:23:33;;;;;;;;;;;12.30;99.90;;;;;;5059056;28;20265;-75
2023/10/21 04:25:59;;;;;;;;;;;12.20;99.90;;;;;;5059388;28;19909;-75
2023/10/21 04:28:25;;;;;;;;;;;12.10;99.90;;;;;;5059032;28;19932;-75
2023/10/21 04:30:51;;;;;;;;;;;11.90;99.90;;;;;;5071367;28;19920;-76
2023/10/21 04:33:16;;;;;;;;;;;11.80;99.90;;;;;;5070447;28;19917;-75
2023/10/21 04:35:42;;;;;;;;;;;11.60;99.90;;;;;;5063409;28;20290;-75
2023/10/21 04:38:09;;;;;;;;;;;11.60;99.90;;;;;;5069861;28;19915;-75
2023/10/21 04:40:35;;;;;;;;;;;11.50;99.90;;;;;;5071716;28;19999;-75
2023/10/21 04:43:00;;;;;;;;;;;11.30;99.90;;;;;;5065973;28;19944;-75
2023/10/21 04:45:26;;;;;;;;;;;11.20;99.90;;;;;;5071339;28;19909;-75
2023/10/21 04:47:51;;;;;;;;;;;11.10;99.90;;;;;;5066711;28;20007;-75
2023/10/21 04:50:17;;;;;;;;;;;11.00;99.90;;;;;;5079726;28;20006;-75
2023/10/21 04:52:43;;;;;;;;;;;10.90;99.90;;;;;;5073644;28;19917;-75
2023/10/21 04:55:09;;;;;;;;;;;10.80;99.90;;;;;;5079978;28;19909;-75
2023/10/21 04:57:34;;;;;;;;;;;10.80;99.90;;;;;;5071695;28;19952;-74
2023/10/21 05:00:00;;;;;;;;;;;10.70;99.90;;;;;;5072506;28;19916;-75
2023/10/21 05:02:25;;;;;;;;;;;10.60;99.90;;;;;;5067470;28;19921;-74
2023/10/21 05:04:51;;;;;;;;;;;10.50;99.90;;;;;;5072617;28;19912;-75
2023/10/21 05:07:16;;;;;;;;;;;10.40;99.90;;;;;;5068559;28;19913;-75
2023/10/21 05:09:42;;;;;;;;;;;10.30;99.90;;;;;;5073366;28;19915;-75
2023/10/21 05:12:10;;;;;;;;;;;10.30;99.90;;;;;;5073162;28;19935;-75
2023/10/21 05:14:36;;;;;;;;;;;10.20;99.90;;;;;;5068122;28;19908;-75
2023/10/21 05:17:01;;;;;;;;;;;10.20;99.90;;;;;;5062606;28;19935;-75
2023/10/21 05:19:27;;;;;;;;;;;10.10;99.90;;;;;;5068751;28;19912;-75
2023/10/21 05:21:52;;;;;;;;;;;10.10;99.90;;;;;;5064225;28;19955;-76
2023/10/21 05:24:18;;;;;;;;;;;10.00;99.90;;;;;;5067353;28;19959;-75
2023/10/21 05:26:43;;;;;;;;;;;10.00;99.90;;;;;;5062964;28;19908;-75
2023/10/21 05:29:09;;;;;;;;;;;10.00;99.90;;;;;;5069100;28;19912;-75
2023/10/21 05:31:35;;;;;;;;;;;9.90;99.90;;;;;;5069108;28;19915;-75
2023/10/21 05:34:00;;;;;;;;;;;9.90;99.90;;;;;;5066285;28;19913;-75
2023/10/21 05:36:26;;;;;;;;;;;9.90;99.90;;;;;;5061863;28;20019;-75
2023/10/21 05:38:52;;;;;;;;;;;9.80;99.90;;;;;;5071640;28;20398;-75
2023/10/21 05:41:17;;;;;;;;;;;9.80;99.90;;;;;;5060575;28;19913;-74
2023/10/21 05:43:43;;;;;;;;;;;9.80;99.90;;;;;;5062945;28;19992;-75
2023/10/21 05:46:08;;;;;;;;;;;9.70;99.90;;;;;;5062631;28;19908;-75
2023/10/21 05:48:34;;;;;;;;;;;9.70;99.90;;;;;;5063147;28;20426;-75
2023/10/21 05:51:00;;;;;;;;;;;9.70;99.90;;;;;;5063158;28;20381;-74
2023/10/21 05:53:26;;;;;;;;;;;9.70;99.90;;;;;;5072417;28;20506;-75
2023/10/21 05:55:53;;;;;;;;;;;9.70;99.90;;;;;;5067281;28;19967;-74
2023/10/21 05:58:19;;;;;;;;;;;9.70;99.90;;;;;;5067848;28;19908;-74
2023/10/21 06:00:44;;;;;;;;;;;9.70;99.90;;;;;;5072594;28;20410;-73
2023/10/21 06:03:10;;;;;;;;;;;9.70;99.90;;;;;;5085948;28;19908;-78
2023/10/21 06:05:35;;;;;;;;;;;9.70;99.90;;;;;;5074255;28;19979;-73
2023/10/21 06:08:01;;;;;;;;;;;9.70;99.90;;;;;;5084508;28;19932;-73
2023/10/21 06:10:27;;;;;;;;;;;9.70;99.90;;;;;;5082518;28;19912;-73
2023/10/21 06:12:53;;;;;;;;;;;9.70;99.90;;;;;;5092026;28;19964;-73
2023/10/21 06:15:18;;;;;;;;;;;9.70;99.90;;;;;;5086177;28;19917;-73
2023/10/21 06:17:45;;;;;;;;;;;9.70;99.90;;;;;;5092203;28;19955;-73
2023/10/21 06:20:11;;;;;;;;;;;9.60;99.90;;;;;;5086149;28;20288;-73
2023/10/21 06:22:37;;;;;;;;;;;9.60;99.90;;;;;;5083052;28;19912;-73
2023/10/21 06:25:04;;;;;;;;;;;9.60;99.90;;;;;;5084137;28;20307;-73
2023/10/21 06:27:29;;;;;;;;;;;9.60;99.90;;;;;;5082739;28;19962;-73
2023/10/21 06:29:55;;;;;;;;;;;9.60;99.90;;;;;;5083600;28;19908;-73
2023/10/21 06:32:21;;;;;;;;;;;9.60;99.90;;;;;;5082379;28;19962;-73
2023/10/21 06:34:46;;;;;;;;;;;9.60;99.90;;;;;;5082905;28;20022;-73
2023/10/21 06:37:12;;;;;;;;;;;9.60;99.90;;;;;;5089931;28;19914;-73
2023/10/21 06:39:37;;;;;;;;;;;9.60;99.90;;;;;;5090523;28;20257;-73
2023/10/21 06:42:04;;;;;;;;;;;9.60;99.90;;;;;;5093853;28;19915;-73
2023/10/21 06:44:29;;;;;;;;;;;9.70;99.90;;;;;;5082173;28;19912;-73
2023/10/21 06:46:55;;;;;;;;;;;9.70;99.90;;;;;;5098128;28;19915;-73
2023/10/21 06:49:20;;;;;;;;;;;9.80;99.90;;;;;;5096586;28;20387;-73
2023/10/21 06:51:49;;;;;;;;;;;9.80;99.90;;;;;;5098555;28;19929;-73
2023/10/21 06:54:15;;;;;;;;;;;9.80;99.90;;;;;;5093523;28;19952;-72
2023/10/21 06:56:40;;;;;;;;;;;9.90;99.90;;;;;;5094493;28;19949;-72
2023/10/21 06:59:06;;;;;;;;;;;10.00;99.90;;;;;;5089030;28;20292;-73
2023/10/21 07:01:32;;;;;;;;;;;10.00;99.90;;;;;;5093389;28;20288;-73
2023/10/21 07:03:58;;;;;;;;;;;10.20;99.90;;;;;;5087559;28;20404;-73
2023/10/21 07:06:23;;;;;;;;;;;10.20;99.90;;;;;;5093876;28;20052;-73
2023/10/21 07:08:49;;;;;;;;;;;10.30;99.90;;;;;;5089260;28;19916;-73
2023/10/21 07:11:14;;;;;;;;;;;10.40;99.90;;;;;;5087657;28;19924;-73
2023/10/21 07:13:41;;;;;;;;;;;10.60;99.90;;;;;;5081008;28;19968;-73
2023/10/21 07:16:08;;;;;;;;;;;10.60;99.90;;;;;;5078451;28;19908;-71
2023/10/21 07:18:33;;;;;;;;;;;10.80;99.90;;;;;;5087144;28;19908;-73
2023/10/21 07:20:59;;;;;;;;;;;10.90;99.90;;;;;;5096616;28;19966;-72
2023/10/21 07:23:24;;;;;;;;;;;11.10;99.90;;;;;;5088187;28;19923;-73
2023/10/21 07:25:50;;;;;;;;;;;11.30;99.90;;;;;;5097784;28;19912;-73
2023/10/21 07:28:16;;;;;;;;;;;11.50;99.90;;;;;;5098880;28;19928;-72
2023/10/21 07:30:41;;;;;;;;;;;11.60;99.90;;;;;;5097738;28;19912;-72
2023/10/21 07:33:07;;;;;;;;;;;11.70;99.90;;;;;;5076701;28;19920;-73
2023/10/21 07:35:32;;;;;;;;;;;11.90;99.90;;;;;;5096046;28;19908;-73
2023/10/21 07:37:58;;;;;;;;;;;12.00;99.90;;;;;;5092163;28;20349;-73
2023/10/21 07:40:23;;;;;;;;;;;12.10;99.90;;;;;;5094355;28;19908;-73
2023/10/21 07:42:49;;;;;;;;;;;12.10;99.90;;;;;;5090569;28;19931;-72
2023/10/21 07:45:15;;;;;;;;;;;12.20;99.90;;;;;;5094542;28;20326;-73
2023/10/21 07:47:41;;;;;;;;;;;12.20;99.90;;;;;;5089432;28;19970;-73
2023/10/21 07:50:10;;;;;;;;;;;12.30;99.90;;;;;;5095062;28;20347;-73
2023/10/21 07:52:36;;;;;;;;;;;12.40;99.90;;;;;;5082211;28;20315;-73
2023/10/21 07:55:02;;;;;;;;;;;12.40;99.90;;;;;;5080638;28;19958;-73
2023/10/21 07:57:28;;;;;;;;;;;12.40;99.90;;;;;;5082082;28;20000;-72
2023/10/21 07:59:54;;;;;;;;;;;12.50;99.90;;;;;;5079401;28;19947;-72
2023/10/21 08:02:19;;;;;;;;;;;12.60;99.90;;;;;;5081234;28;19915;-72
2023/10/21 08:04:45;;;;;;;;;;;12.70;99.90;;;;;;5082316;28;19912;-73
2023/10/21 08:07:11;;;;;;;;;;;12.90;99.90;;;;;;5083230;28;20605;-73
2023/10/21 08:09:38;;;;;;;;;;;13.10;99.90;;;;;;5082306;28;20277;-73
2023/10/21 08:12:04;;;;;;;;;;;13.30;99.90;;;;;;5082986;28;19912;-73
2023/10/21 08:14:31;;;;;;;;;;;13.60;99.90;;;;;;5082268;28;20312;-73
2023/10/21 08:16:57;;;;;;;;;;;13.90;99.90;;;;;;5081531;28;19917;-73
2023/10/21 08:19:24;;;;;;;;;;;14.20;99.90;;;;;;5083318;28;19909;-74
2023/10/21 08:21:50;;;;;;;;;;;14.50;99.90;;;;;;5082996;28;19908;-74
2023/10/21 08:24:15;;;;;;;;;;;14.80;99.90;;;;;;5082949;28;19909;-73
2023/10/21 08:26:41;;;;;;;;;;;14.90;99.90;;;;;;5081676;28;19909;-74
2023/10/21 08:29:06;;;;;;;;;;;14.90;99.90;;;;;;5078868;28;19912;-72
2023/10/21 08:31:32;;;;;;;;;;;14.80;99.90;;;;;;5079904;28;20392;-73
2023/10/21 08:33:58;;;;;;;;;;;14.80;99.90;;;;;;5079003;28;19912;-74
2023/10/21 08:36:24;;;;;;;;;;;14.70;99.90;;;;;;5084994;28;19912;-73
2023/10/21 08:38:53;;;;;;;;;;;14.80;99.90;;;;;;5094585;28;19930;-73
2023/10/21 08:41:19;;;;;;;;;;;14.80;99.90;;;;;;5089920;28;19909;-72
2023/10/21 08:43:46;;;;;;;;;;;14.80;99.90;;;;;;5088135;28;19919;-73
2023/10/21 08:46:13;;;;;;;;;;;14.90;99.90;;;;;;5092919;28;20389;-71
2023/10/21 08:48:39;;;;;;;;;;;14.90;99.90;;;;;;5094220;28;19908;-74
2023/10/21 08:51:07;;;;;;;;;;;14.90;99.90;;;;;;5092280;28;19969;-72
2023/10/21 08:53:36;;;;;;;;;;;15.00;99.90;;;;;;5095744;28;19961;-74
2023/10/21 08:56:01;;;;;;;;;;;15.10;99.90;;;;;;5085054;28;19908;-73
2023/10/21 08:58:31;;;;;;;;;;;15.10;99.90;;;;;;5091871;28;19968;-75
2023/10/21 09:00:57;;;;;;;;;;;15.10;99.90;;;;;;5086884;28;19908;-73
2023/10/21 09:03:23;;;;;;;;;;;15.30;99.90;;;;;;5089734;28;19934;-73
2023/10/21 09:06:21;;;;;;;;;;;15.40;99.90;;;;;;5086669;28;19909;-74
2023/10/21 09:08:48;;;;;;;;;;;15.50;99.90;;;;;;5064884;28;19912;-73
2023/10/21 09:11:18;;;;;;;;;;;15.60;99.90;;;;;;5085294;28;20335;-74
2023/10/21 09:13:44;;;;;;;;;;;15.70;99.90;;;;;;5059619;28;19917;-73
2023/10/21 09:16:21;;;;;;;;;;;15.80;99.90;;;;;;5069404;28;19909;-74
2023/10/21 09:19:00;;;;;;;;;;;15.80;99.90;;;;;;5063883;28;19908;-74
2023/10/21 09:21:45;;;;;;;;;;;15.80;99.90;;;;;;5077631;28;19913;-73
2023/10/21 09:24:11;;;;;;;;;;;15.90;99.90;;;;;;5077232;28;19916;-73
2023/10/21 09:26:41;;;;;;;;;;;15.80;99.90;;;;;;5077281;28;19908;-74
2023/10/21 09:29:07;;;;;;;;;;;15.90;99.90;;;;;;5077241;28;19939;-74
2023/10/21 09:31:48;;;;;;;;;;;15.90;99.90;;;;;;5075937;28;19909;-73
2023/10/21 09:34:21;;;;;;;;;;;16.00;99.90;;;;;;5076795;28;19982;-73
2023/10/21 09:36:47;;;;;;;;;;;15.90;99.90;;;;;;5074983;28;19912;-73
2023/10/21 09:39:12;;;;;;;;;;;16.10;99.90;;;;;;5076664;28;19982;-73
2023/10/21 09:41:38;;;;;;;;;;;16.10;99.90;;;;;;5076674;28;19936;-73
2023/10/21 09:44:05;;;;;;;;;;;16.20;99.90;;;;;;5077496;28;19923;-73
2023/10/21 09:46:32;;;;;;;;;;;16.30;99.90;;;;;;5083871;28;20020;-74
2023/10/21 09:49:00;;;;;;;;;;;16.40;99.90;;;;;;5085784;28;19908;-73
2023/10/21 09:51:27;;;;;;;;;;;16.50;99.90;;;;;;5082320;28;19915;-75
2023/10/21 09:53:56;;;;;;;;;;;16.60;99.90;;;;;;5076945;28;19912;-75
2023/10/21 09:56:22;;;;;;;;;;;16.70;99.90;;;;;;5081660;28;19912;-74
2023/10/21 09:58:49;;;;;;;;;;;16.80;99.90;;;;;;5085191;28;19908;-74
2023/10/21 10:01:17;;;;;;;;;;;16.80;99.90;;;;;;5081769;28;19920;-74
2023/10/21 10:03:43;;;;;;;;;;;17.00;99.90;;;;;;5086981;28;20344;-74
2023/10/21 10:06:09;;;;;;;;;;;17.20;99.90;;;;;;5084852;28;19944;-74
2023/10/21 10:08:35;;;;;;;;;;;17.10;99.90;;;;;;5080812;28;19912;-74
2023/10/21 10:11:15;;;;;;;;;;;17.10;99.90;;;;;;5085146;28;19909;-76
2023/10/21 10:13:47;;;;;;;;;;;17.00;99.90;;;;;;5085865;28;19958;-73
2023/10/21 10:16:19;;;;;;;;;;;16.90;99.90;;;;;;5086117;28;19913;-73
2023/10/21 10:18:50;;;;;;;;;;;16.80;99.90;;;;;;5087604;28;19917;-76
2023/10/21 10:21:16;;;;;;;;;;;16.70;99.90;;;;;;5087730;28;20004;-74
2023/10/21 10:23:47;;;;;;;;;;;16.70;99.90;;;;;;5089156;28;20391;-74
2023/10/21 10:26:15;;;;;;;;;;;16.80;99.90;;;;;;5082857;28;20446;-75
2023/10/21 10:28:41;;;;;;;;;;;16.80;99.90;;;;;;5078050;28;19921;-75
2023/10/21 10:31:07;;;;;;;;;;;16.80;99.90;;;;;;5078549;28;19917;-73
2023/10/21 10:33:33;;;;;;;;;;;16.70;99.90;;;;;;5083196;28;19912;-74
2023/10/21 10:36:06;;;;;;;;;;;16.70;99.90;;;;;;5092440;28;19908;-76
2023/10/21 10:38:34;;;;;;;;;;;16.70;99.90;;;;;;5070386;28;19908;-76
2023/10/21 10:41:07;;;;;;;;;;;16.80;99.90;;;;;;5089404;28;19909;-74
2023/10/21 10:43:33;;;;;;;;;;;16.80;99.90;;;;;;5093397;28;19916;-76
2023/10/21 10:46:00;;;;;;;;;;;16.80;99.90;;;;;;5089310;28;20344;-76
2023/10/21 10:48:26;;;;;;;;;;;16.80;99.90;;;;;;5085871;28;19913;-77
2023/10/21 10:50:56;;;;;;;;;;;16.70;99.90;;;;;;5079053;28;19908;-75
2023/10/21 10:53:21;;;;;;;;;;;16.80;99.90;;;;;;5075949;28;20004;-75
2023/10/21 10:55:48;;;;;;;;;;;16.80;99.90;;;;;;5073672;28;19915;-73
2023/10/21 10:58:14;;;;;;;;;;;16.90;99.90;;;;;;5085686;28;19995;-75
2023/10/21 11:00:39;;;;;;;;;;;16.80;99.90;;;;;;5070644;28;19909;-76
2023/10/21 11:03:08;;;;;;;;;;;16.90;99.90;;;;;;5084401;28;19912;-76
2023/10/21 11:05:37;;;;;;;;;;;17.00;99.90;;;;;;5078688;28;19915;-74
2023/10/21 11:08:04;;;;;;;;;;;17.10;99.90;;;;;;5080388;28;19909;-73
2023/10/21 11:10:30;;;;;;;;;;;17.20;99.90;;;;;;5079217;28;20365;-75
2023/10/21 11:12:55;;;;;;;;;;;17.20;99.90;;;;;;5080077;28;19951;-73
2023/10/21 11:15:23;;;;;;;;;;;17.20;99.90;;;;;;5078592;28;19923;-75
2023/10/21 11:17:48;;;;;;;;;;;17.20;99.90;;;;;;5087035;28;19915;-77
2023/10/21 11:20:15;;;;;;;;;;;17.20;99.90;;;;;;5076769;28;19911;-78
2023/10/21 11:22:42;;;;;;;;;;;17.20;99.90;;;;;;5087200;28;20431;-77
2023/10/21 11:25:08;;;;;;;;;;;17.30;99.90;;;;;;5085626;28;19965;-77
2023/10/21 11:27:34;;;;;;;;;;;17.40;99.90;;;;;;5097309;28;19920;-77
2023/10/21 11:30:00;;;;;;;;;;;17.50;99.90;;;;;;5094752;28;20002;-77
2023/10/21 11:32:27;;;;;;;;;;;17.40;99.90;;;;;;5097949;28;19959;-77
2023/10/21 11:34:53;;;;;;;;;;;17.50;99.90;;;;;;5093596;28;19909;-76
2023/10/21 11:37:19;;;;;;;;;;;17.60;99.90;;;;;;5094875;28;19912;-77
2023/10/21 11:39:44;;;;;;;;;;;17.60;99.90;;;;;;5088312;28;19962;-76
2023/10/21 11:42:19;;;;;;;;;;;17.50;99.90;;;;;;5094637;28;19915;-77
2023/10/21 11:44:58;;;;;;;;;;;17.50;99.90;;;;;;5090583;28;19935;-74
2023/10/21 11:47:28;;;;;;;;;;;17.50;99.90;;;;;;5093334;28;19919;-77
2023/10/21 11:49:54;;;;;;;;;;;17.60;99.90;;;;;;5093580;28;20398;-76
2023/10/21 11:52:21;;;;;;;;;;;17.70;99.90;;;;;;5085305;28;19913;-81
2023/10/21 11:54:48;;;;;;;;;;;18.00;99.90;;;;;;5085289;28;20368;-77
2023/10/21 12:19:26;;;;;;;;;;;18.50;99.90;;;;;;5072749;28;19909;-77
2023/10/21 12:22:30;;;;;;;;;;;18.60;99.90;;;;;;5086628;28;19915;-76
2023/10/21 12:35:56;;;;;;;;;;;17.90;99.90;;;;;;5095980;28;20439;-75
2023/10/21 12:39:36;;;;;;;;;;;17.80;99.90;;;;;;5094269;28;19947;-77
2023/10/21 12:41:25;;;;;;;;;;;17.80;99.90;;;;;;5067034;28;19912;-77
2023/10/21 12:43:52;;;;;;;;;;;17.70;99.90;;;;;;5094384;28;19908;-76
2023/10/21 12:46:18;;;;;;;;;;;17.60;99.90;;;;;;5093609;28;19908;-74
2023/10/21 12:48:45;;;;;;;;;;;17.50;99.90;;;;;;5096733;28;19958;-76
2023/10/21 12:51:14;;;;;;;;;;;17.50;99.90;;;;;;5088206;28;19909;-75
2023/10/21 12:53:40;;;;;;;;;;;17.50;99.90;;;;;;5086190;28;19912;-77
2023/10/21 12:56:06;;;;;;;;;;;17.60;99.90;;;;;;5095212;28;19914;-76
2023/10/21 12:58:32;;;;;;;;;;;17.80;99.90;;;;;;5096313;28;19908;-76
2023/10/21 13:00:58;;;;;;;;;;;17.80;99.90;;;;;;5094125;28;19950;-77
2023/10/21 13:03:23;;;;;;;;;;;17.80;99.90;;;;;;5095480;28;19912;-77
2023/10/21 13:05:52;;;;;;;;;;;17.70;99.90;;;;;;5091865;28;19912;-77
2023/10/21 13:08:17;;;;;;;;;;;17.60;99.90;;;;;;5094059;28;20395;-74
2023/10/21 13:10:43;;;;;;;;;;;17.60;99.90;;;;;;5091964;28;19908;-75
2023/10/21 13:13:11;;;;;;;;;;;17.70;99.90;;;;;;5094378;28;19916;-78
2023/10/21 13:15:36;;;;;;;;;;;17.90;99.90;;;;;;5078576;28;19961;-75
2023/10/21 13:18:03;;;;;;;;;;;18.00;99.90;;;;;;5092398;28;19909;-78
2023/10/21 13:20:29;;;;;;;;;;;18.10;99.90;;;;;;5090982;28;19923;-78
2023/10/21 13:22:54;;;;;;;;;;;18.40;99.90;;;;;;5094026;28;19912;-78
2023/10/21 13:25:21;;;;;;;;;;;18.60;99.90;;;;;;5087764;28;20049;-75
2023/10/21 13:27:46;;;;;;;;;;;18.70;99.90;;;;;;5084742;28;20383;-77
2023/10/21 13:30:15;;;;;;;;;;;18.70;99.90;;;;;;5090569;28;19977;-78
2023/10/21 13:32:44;;;;;;;;;;;18.60;99.90;;;;;;5091584;28;19965;-77
2023/10/21 13:35:12;;;;;;;;;;;18.50;99.90;;;;;;5091199;28;20434;-75
2023/10/21 13:37:38;;;;;;;;;;;18.40;99.90;;;;;;5092502;28;19915;-78
2023/10/21 13:40:12;;;;;;;;;;;18.30;99.90;;;;;;5092819;28;19958;-75
2023/10/21 13:42:38;;;;;;;;;;;18.40;99.90;;;;;;5089903;28;19908;-76
2023/10/21 13:45:05;;;;;;;;;;;18.40;99.90;;;;;;5093949;28;20431;-79
2023/10/21 13:47:31;;;;;;;;;;;18.50;99.90;;;;;;5091752;28;20329;-74
2023/10/21 13:49:57;;;;;;;;;;;18.60;99.90;;;;;;5093729;28;19968;-77
2023/10/21 13:52:25;;;;;;;;;;;18.60;99.90;;;;;;5091743;28;20402;-78
2023/10/21 13:54:50;;;;;;;;;;;18.60;99.90;;;;;;5094138;28;19912;-77
2023/10/21 13:57:16;;;;;;;;;;;18.60;99.90;;;;;;5092225;28;19919;-75
2023/10/21 13:59:45;;;;;;;;;;;18.60;99.90;;;;;;5094421;28;19915;-77
2023/10/21 14:02:11;;;;;;;;;;;18.60;99.90;;;;;;5091750;28;19909;-77
2023/10/21 14:04:37;;;;;;;;;;;18.60;99.70;;;;;;5093803;28;20449;-77
2023/10/21 14:07:02;;;;;;;;;;;18.50;99.90;;;;;;5089977;28;20336;-77
2023/10/21 14:09:28;;;;;;;;;;;18.40;99.90;;;;;;5085041;28;19962;-76
2023/10/21 14:11:54;;;;;;;;;;;18.30;99.90;;;;;;5082087;28;20376;-74
2023/10/21 14:14:20;;;;;;;;;;;18.30;99.90;;;;;;5081493;28;19919;-77
2023/10/21 14:16:46;;;;;;;;;;;18.30;99.90;;;;;;5084910;28;19955;-74
2023/10/21 14:19:11;;;;;;;;;;;18.00;99.90;;;;;;5085727;28;19912;-77
2023/10/21 14:21:37;;;;;;;;;;;18.00;99.90;;;;;;5085256;28;19923;-77
2023/10/21 14:24:03;;;;;;;;;;;18.00;99.90;;;;;;5081194;28;19908;-76
2023/10/21 14:26:28;;;;;;;;;;;18.10;99.90;;;;;;5082729;28;19920;-78
2023/10/21 14:28:57;;;;;;;;;;;18.10;99.90;;;;;;5079238;28;19963;-75
2023/10/21 14:31:31;;;;;;;;;;;18.10;99.90;;;;;;5065428;28;19970;-76
2023/10/21 14:33:57;;;;;;;;;;;18.00;99.90;;;;;;5078091;28;19917;-76
2023/10/21 14:36:22;;;;;;;;;;;18.00;99.90;;;;;;5080464;28;19908;-76
2023/10/21 14:38:50;;;;;;;;;;;18.00;99.90;;;;;;5080182;28;20344;-77
2023/10/21 14:41:15;;;;;;;;;;;17.90;99.90;;;;;;5088489;28;19954;-75
2023/10/21 14:43:42;;;;;;;;;;;17.80;99.90;;;;;;5091682;28;19912;-78
2023/10/21 14:46:09;;;;;;;;;;;17.80;99.90;;;;;;5087896;28;20379;-78
2023/10/21 14:48:35;;;;;;;;;;;17.80;99.90;;;;;;5089969;28;19908;-76